Time;durP1;ratioP1;P1;durP2;ratioP2;P2;SDS_P1;SDS_P2;PMS_P1;PMS_P2;Temp;Humidity;BMP_temperature;BMP_pressure;BME280_temperature;BME280_humidity;BME280_pressure;Samples;Min_cycle;Max_cycle;Signal;HPM_P1;HPM_P2
2021/03/21 00:01:57;;;;;;;22.63;12.90;;;;;;;;;;4975022;28;20174;-89
2021/03/21 00:04:22;;;;;;;19.90;12.17;;;;;;;;;;4974425;28;20190;-89
2021/03/21 00:06:48;;;;;;;22.90;12.07;;;;;;;;;;4975158;28;20175;-89
2021/03/21 00:09:15;;;;;;;25.67;12.97;;;;;;;;;;4941413;28;20221;-89
2021/03/21 00:11:40;;;;;;;25.93;13.50;;;;;;;;;;4973388;28;20693;-87
2021/03/21 00:14:06;;;;;;;21.67;12.03;;;;;;;;;;4973381;28;20290;-88
2021/03/21 00:16:32;;;;;;;25.90;12.87;;;;;;;;;;4973961;28;20188;-89
2021/03/21 00:18:58;;;;;;;25.40;13.50;;;;;;;;;;4957683;28;20175;-88
2021/03/21 00:21:24;;;;;;;20.63;11.73;;;;;;;;;;4974722;28;20241;-88
2021/03/21 00:23:49;;;;;;;20.27;11.30;;;;;;;;;;4974574;28;20482;-88
2021/03/21 00:26:16;;;;;;;19.60;11.33;;;;;;;;;;4974891;28;20182;-88
2021/03/21 00:28:41;;;;;;;18.67;11.83;;;;;;;;;;4975105;28;20183;-88
2021/03/21 00:31:09;;;;;;;19.13;11.37;;;;;;;;;;4975322;28;20174;-88
2021/03/21 00:33:36;;;;;;;20.03;11.87;;;;;;;;;;4957568;28;20213;-88
2021/03/21 00:36:02;;;;;;;19.87;11.50;;;;;;;;;;4974708;28;20174;-88
2021/03/21 00:38:27;;;;;;;19.50;11.37;;;;;;;;;;4973931;28;20257;-90
2021/03/21 00:40:53;;;;;;;18.63;10.97;;;;;;;;;;4975681;28;20341;-90
2021/03/21 00:43:19;;;;;;;20.43;10.77;;;;;;;;;;4975968;28;20180;-89
2021/03/21 00:45:44;;;;;;;20.57;11.37;;;;;;;;;;4957732;28;20193;-89
2021/03/21 00:48:18;;;;;;;18.97;10.90;;;;;;;;;;4974636;28;20301;-87
2021/03/21 00:50:45;;;;;;;18.10;10.73;;;;;;;;;;4957945;28;20633;-87
2021/03/21 00:53:15;;;;;;;22.50;11.43;;;;;;;;;;4975502;28;20665;-89
2021/03/21 00:55:43;;;;;;;16.87;9.83;;;;;;;;;;4975585;28;20167;-89
2021/03/21 00:58:10;;;;;;;18.00;10.30;;;;;;;;;;4974607;28;20247;-87
2021/03/21 01:00:39;;;;;;;18.47;11.30;;;;;;;;;;4957559;28;20629;-90
2021/03/21 01:03:07;;;;;;;18.70;10.53;;;;;;;;;;4957521;28;20193;-90
2021/03/21 01:05:48;;;;;;;18.93;10.53;;;;;;;;;;4974129;28;20189;-89
2021/03/21 01:08:25;;;;;;;17.37;10.20;;;;;;;;;;4975127;28;20165;-89
2021/03/21 01:10:58;;;;;;;23.00;11.20;;;;;;;;;;4974711;28;20559;-89
2021/03/21 01:13:23;;;;;;;17.20;10.17;;;;;;;;;;4957421;28;20237;-89
2021/03/21 01:15:50;;;;;;;21.63;10.90;;;;;;;;;;4974517;28;20186;-89
2021/03/21 01:18:20;;;;;;;18.60;10.33;;;;;;;;;;4974767;28;20208;-90
2021/03/21 01:20:46;;;;;;;20.63;11.00;;;;;;;;;;4956686;28;20228;-90
2021/03/21 01:23:11;;;;;;;20.17;10.63;;;;;;;;;;4956809;28;20582;-90
2021/03/21 01:25:36;;;;;;;18.13;10.07;;;;;;;;;;4956993;28;20579;-90
2021/03/21 01:28:02;;;;;;;20.03;10.23;;;;;;;;;;4974535;28;20261;-89
2021/03/21 01:30:27;;;;;;;18.87;10.13;;;;;;;;;;4957295;28;20182;-89
2021/03/21 01:32:53;;;;;;;17.47;10.70;;;;;;;;;;4973984;28;20643;-89
2021/03/21 01:35:19;;;;;;;17.47;10.40;;;;;;;;;;4974765;28;20190;-89
2021/03/21 01:37:45;;;;;;;16.97;10.07;;;;;;;;;;4974722;28;20261;-89
2021/03/21 01:40:15;;;;;;;17.30;10.57;;;;;;;;;;4956592;28;20225;-88
2021/03/21 01:42:41;;;;;;;16.83;10.07;;;;;;;;;;4957140;28;20269;-91
2021/03/21 01:45:25;;;;;;;17.93;10.50;;;;;;;;;;4957267;28;20273;-90
2021/03/21 01:47:51;;;;;;;18.10;10.00;;;;;;;;;;4960479;28;20284;-90
2021/03/21 01:50:22;;;;;;;16.27;10.37;;;;;;;;;;4977612;28;20198;-90
2021/03/21 01:52:47;;;;;;;17.53;10.40;;;;;;;;;;4978378;28;20230;-90
2021/03/21 01:55:13;;;;;;;22.97;11.07;;;;;;;;;;4978385;28;20210;-89
2021/03/21 01:57:39;;;;;;;15.97;9.80;;;;;;;;;;4978029;28;20212;-89
2021/03/21 02:00:06;;;;;;;17.03;10.30;;;;;;;;;;4960577;28;20192;-89
2021/03/21 02:02:31;;;;;;;19.17;10.43;;;;;;;;;;4978080;28;20225;-89
2021/03/21 02:04:56;;;;;;;16.50;9.77;;;;;;;;;;4978120;28;20174;-89
2021/03/21 02:07:40;;;;;;;17.33;10.00;;;;;;;;;;4977481;28;20254;-89
2021/03/21 02:10:15;;;;;;;17.57;10.23;;;;;;;;;;4972129;28;20193;-89
2021/03/21 02:13:02;;;;;;;18.17;10.53;;;;;;;;;;4978599;28;20220;-89
2021/03/21 02:15:46;;;;;;;16.57;10.50;;;;;;;;;;4978028;28;20190;-89
2021/03/21 02:18:22;;;;;;;19.33;11.00;;;;;;;;;;4978178;28;20503;-89
2021/03/21 02:21:13;;;;;;;19.73;10.47;;;;;;;;;;4977916;28;20163;-89
2021/03/21 02:23:57;;;;;;;21.20;12.07;;;;;;;;;;4947425;28;20194;-89
2021/03/21 02:26:23;;;;;;;18.03;10.30;;;;;;;;;;4960207;28;20272;-89
2021/03/21 02:29:00;;;;;;;20.40;11.27;;;;;;;;;;4977576;28;20205;-90
2021/03/21 02:31:44;;;;;;;18.40;11.20;;;;;;;;;;4960100;28;20182;-90
2021/03/21 02:34:13;;;;;;;16.37;9.87;;;;;;;;;;4977064;28;20238;-90
2021/03/21 02:36:51;;;;;;;19.83;11.10;;;;;;;;;;4977313;28;20206;-90
2021/03/21 02:39:25;;;;;;;20.70;10.50;;;;;;;;;;4977043;28;20527;-90
2021/03/21 02:41:53;;;;;;;17.47;10.93;;;;;;;;;;4959921;28;20227;-90
2021/03/21 02:44:19;;;;;;;20.20;11.60;;;;;;;;;;4959910;28;20276;-90
2021/03/21 02:46:47;;;;;;;16.37;10.60;;;;;;;;;;4977428;28;20646;-90
2021/03/21 02:49:21;;;;;;;20.40;11.20;;;;;;;;;;4959672;28;20198;-91
2021/03/21 02:51:59;;;;;;;17.57;10.70;;;;;;;;;;4977833;28;20178;-91
2021/03/21 02:54:30;;;;;;;21.27;11.67;;;;;;;;;;4977389;28;20201;-91
2021/03/21 02:57:17;;;;;;;22.87;11.37;;;;;;;;;;4959507;28;20217;-90
2021/03/21 02:59:52;;;;;;;20.63;11.53;;;;;;;;;;4977499;28;20163;-90
2021/03/21 03:02:20;;;;;;;19.87;12.03;;;;;;;;;;4960119;28;20219;-89
2021/03/21 03:04:47;;;;;;;22.37;11.40;;;;;;;;;;4976514;28;20232;-89
2021/03/21 03:07:19;;;;;;;19.20;11.33;;;;;;;;;;4977015;28;20490;-89
2021/03/21 03:09:49;;;;;;;22.03;11.10;;;;;;;;;;4959847;28;20190;-89
2021/03/21 03:12:21;;;;;;;18.80;11.20;;;;;;;;;;4976720;28;20177;-89
2021/03/21 03:14:47;;;;;;;21.27;12.23;;;;;;;;;;4976524;28;20260;-90
2021/03/21 03:17:21;;;;;;;19.30;10.90;;;;;;;;;;4959770;28;20183;-90
2021/03/21 03:20:09;;;;;;;21.07;11.53;;;;;;;;;;4977091;28;20167;-91
2021/03/21 03:22:37;;;;;;;18.50;10.67;;;;;;;;;;4975918;28;20183;-91
2021/03/21 03:25:21;;;;;;;18.33;10.57;;;;;;;;;;4976443;28;20181;-90
2021/03/21 03:28:03;;;;;;;18.20;10.47;;;;;;;;;;4976954;28;20177;-89
2021/03/21 03:30:32;;;;;;;17.63;10.30;;;;;;;;;;4976335;28;20171;-89
2021/03/21 03:32:57;;;;;;;18.00;10.70;;;;;;;;;;4976482;28;20613;-89
2021/03/21 03:35:24;;;;;;;19.60;10.80;;;;;;;;;;4958942;28;20183;-91
2021/03/21 03:37:49;;;;;;;18.23;9.63;;;;;;;;;;4976285;28;20170;-90
2021/03/21 03:40:15;;;;;;;15.83;10.07;;;;;;;;;;4976165;28;20167;-91
2021/03/21 03:42:52;;;;;;;13.23;8.67;;;;;;;;;;4976130;28;20170;-90
2021/03/21 03:45:24;;;;;;;15.63;9.27;;;;;;;;;;4958655;28;20178;-90
2021/03/21 03:47:54;;;;;;;19.10;10.37;;;;;;;;;;4976353;28;20226;-90
2021/03/21 03:50:38;;;;;;;17.73;10.30;;;;;;;;;;4976548;28;20167;-90
2021/03/21 03:53:09;;;;;;;16.03;9.23;;;;;;;;;;4958384;28;20624;-90
2021/03/21 03:55:34;;;;;;;22.40;10.93;;;;;;;;;;4976021;28;20559;-90
2021/03/21 03:58:18;;;;;;;18.23;10.50;;;;;;;;;;4975537;28;20269;-90
2021/03/21 04:00:49;;;;;;;17.87;10.23;;;;;;;;;;4976028;28;20211;-90
2021/03/21 04:03:15;;;;;;;17.50;10.50;;;;;;;;;;4975787;28;20182;-90
2021/03/21 04:05:56;;;;;;;18.53;10.53;;;;;;;;;;4958534;28;20186;-91
2021/03/21 04:08:36;;;;;;;15.23;9.20;;;;;;;;;;4958434;28;20278;-89
2021/03/21 04:11:24;;;;;;;16.60;10.27;;;;;;;;;;4975846;28;20626;-90
2021/03/21 04:13:52;;;;;;;15.50;10.17;;;;;;;;;;4975620;28;20289;-90
2021/03/21 04:16:20;;;;;;;16.97;9.20;;;;;;;;;;4975594;28;20179;-90
2021/03/21 04:18:48;;;;;;;16.63;9.60;;;;;;;;;;4958084;28;20186;-91
2021/03/21 04:21:29;;;;;;;18.80;9.23;;;;;;;;;;4958871;28;20238;-90
2021/03/21 04:24:04;;;;;;;18.73;9.63;;;;;;;;;;4975129;28;20205;-90
2021/03/21 04:26:40;;;;;;;15.97;9.57;;;;;;;;;;4975701;28;20170;-90
2021/03/21 04:29:16;;;;;;;15.23;9.17;;;;;;;;;;4958546;28;20232;-89
2021/03/21 04:31:42;;;;;;;15.60;9.40;;;;;;;;;;4975691;28;20166;-89
2021/03/21 04:34:08;;;;;;;16.10;9.07;;;;;;;;;;4975201;28;20293;-89
2021/03/21 04:36:41;;;;;;;18.07;10.27;;;;;;;;;;4975523;28;20183;-89
2021/03/21 04:39:12;;;;;;;17.07;10.23;;;;;;;;;;4974862;28;20175;-88
2021/03/21 04:41:45;;;;;;;16.90;10.10;;;;;;;;;;4975480;28;20184;-89
2021/03/21 04:44:16;;;;;;;15.47;9.57;;;;;;;;;;4957743;28;20188;-88
2021/03/21 04:46:51;;;;;;;19.83;10.13;;;;;;;;;;4958099;28;20234;-88
2021/03/21 04:49:17;;;;;;;17.90;10.07;;;;;;;;;;4975071;28;20214;-88
2021/03/21 04:51:44;;;;;;;18.57;10.73;;;;;;;;;;4975135;28;20177;-89
2021/03/21 04:54:14;;;;;;;17.07;10.70;;;;;;;;;;4975241;28;20210;-88
2021/03/21 04:56:50;;;;;;;16.93;9.83;;;;;;;;;;4975101;28;20196;-90
2021/03/21 04:59:22;;;;;;;16.47;10.07;;;;;;;;;;4957622;28;20178;-89
2021/03/21 05:02:04;;;;;;;16.50;10.30;;;;;;;;;;4957574;28;20650;-89
2021/03/21 05:04:36;;;;;;;17.03;10.00;;;;;;;;;;4975390;28;20182;-89
2021/03/21 05:07:06;;;;;;;15.03;10.10;;;;;;;;;;4975042;28;20222;-89
2021/03/21 05:09:35;;;;;;;16.53;9.97;;;;;;;;;;4975460;28;20174;-88
2021/03/21 05:12:06;;;;;;;19.30;10.53;;;;;;;;;;4975141;28;20174;-88
2021/03/21 05:14:41;;;;;;;17.67;10.40;;;;;;;;;;4974793;28;20202;-89
2021/03/21 05:17:25;;;;;;;19.30;11.47;;;;;;;;;;4957486;28;20274;-90
2021/03/21 05:20:00;;;;;;;23.10;11.23;;;;;;;;;;4958199;28;20513;-90
2021/03/21 05:22:31;;;;;;;18.50;11.27;;;;;;;;;;4977733;28;20178;-90
2021/03/21 05:25:06;;;;;;;15.33;9.57;;;;;;;;;;4978435;28;20203;-89
2021/03/21 05:27:38;;;;;;;17.77;9.97;;;;;;;;;;4961185;28;20178;-90
2021/03/21 05:30:08;;;;;;;18.73;10.57;;;;;;;;;;4978285;28;20225;-89
2021/03/21 05:32:34;;;;;;;18.33;11.27;;;;;;;;;;4960953;28;20224;-89
2021/03/21 05:34:59;;;;;;;17.27;10.50;;;;;;;;;;4978452;28;20234;-91
2021/03/21 05:37:31;;;;;;;18.83;10.93;;;;;;;;;;4961071;28;20189;-90
2021/03/21 05:40:02;;;;;;;19.03;10.90;;;;;;;;;;4978829;28;20640;-90
2021/03/21 05:42:30;;;;;;;17.67;10.90;;;;;;;;;;4978679;28;20183;-91
2021/03/21 05:45:04;;;;;;;15.27;9.90;;;;;;;;;;4960955;28;20186;-90
2021/03/21 05:47:29;;;;;;;16.13;10.87;;;;;;;;;;4960483;28;20234;-90
2021/03/21 05:49:57;;;;;;;16.40;11.53;;;;;;;;;;4960891;28;20190;-90
2021/03/21 05:52:22;;;;;;;20.73;11.70;;;;;;;;;;4960784;28;20227;-89
2021/03/21 05:54:48;;;;;;;17.47;10.63;;;;;;;;;;4978595;28;20222;-89
2021/03/21 05:57:13;;;;;;;16.40;11.07;;;;;;;;;;4977811;28;20175;-89
2021/03/21 06:00:01;;;;;;;16.73;10.47;;;;;;;;;;4978538;28;20179;-89
2021/03/21 06:02:32;;;;;;;19.17;10.67;;;;;;;;;;4978574;28;20217;-89
2021/03/21 06:05:16;;;;;;;14.53;9.63;;;;;;;;;;4977984;28;20174;-89
2021/03/21 06:07:47;;;;;;;14.43;9.73;;;;;;;;;;4978180;28;20229;-89
2021/03/21 06:10:30;;;;;;;18.53;9.57;;;;;;;;;;4977832;28;20206;-90
2021/03/21 06:13:05;;;;;;;16.40;10.37;;;;;;;;;;4960395;28;20182;-90
2021/03/21 06:15:49;;;;;;;14.63;10.17;;;;;;;;;;4961237;28;20568;-90
2021/03/21 06:18:19;;;;;;;14.57;9.27;;;;;;;;;;4977744;28;20178;-91
2021/03/21 06:21:03;;;;;;;15.53;9.73;;;;;;;;;;4977316;28;20181;-90
2021/03/21 06:23:47;;;;;;;15.80;9.83;;;;;;;;;;4977840;28;20175;-91
2021/03/21 06:26:12;;;;;;;21.00;10.93;;;;;;;;;;4959885;28;20241;-92
2021/03/21 06:28:38;;;;;;;15.67;10.07;;;;;;;;;;4960117;28;20183;-91
2021/03/21 06:31:03;;;;;;;18.40;10.60;;;;;;;;;;4960165;28;20179;-91
2021/03/21 06:33:47;;;;;;;18.07;11.33;;;;;;;;;;4959626;28;20293;-88
2021/03/21 06:36:21;;;;;;;18.63;10.50;;;;;;;;;;4977121;28;20220;-88
2021/03/21 06:39:02;;;;;;;17.53;10.80;;;;;;;;;;4977308;28;20175;-88
2021/03/21 06:41:49;;;;;;;19.77;10.83;;;;;;;;;;4977258;28;20221;-89
2021/03/21 06:44:29;;;;;;;18.23;11.00;;;;;;;;;;4977562;28;20576;-89
2021/03/21 06:47:01;;;;;;;17.83;10.97;;;;;;;;;;4977397;28;20281;-88
2021/03/21 06:49:39;;;;;;;22.27;13.37;;;;;;;;;;4977162;28;20194;-89
2021/03/21 06:52:11;;;;;;;21.53;11.97;;;;;;;;;;4977208;28;20254;-89
2021/03/21 06:54:36;;;;;;;30.53;15.07;;;;;;;;;;4976959;28;20205;-88
2021/03/21 06:57:16;;;;;;;26.53;14.03;;;;;;;;;;4976917;28;20179;-88
2021/03/21 06:59:47;;;;;;;21.63;11.87;;;;;;;;;;4977450;28;20178;-88
2021/03/21 07:02:21;;;;;;;21.87;11.27;;;;;;;;;;4976937;28;20175;-89
2021/03/21 07:04:59;;;;;;;24.93;12.73;;;;;;;;;;4977185;28;20568;-89
2021/03/21 07:07:30;;;;;;;24.80;14.60;;;;;;;;;;4976655;28;20181;-88
2021/03/21 07:10:16;;;;;;;27.10;13.77;;;;;;;;;;4977073;28;20494;-88
2021/03/21 07:13:00;;;;;;;17.63;10.87;;;;;;;;;;4920301;28;20196;-89
2021/03/21 07:15:34;;;;;;;22.13;12.90;;;;;;;;;;4977145;28;20223;-88
2021/03/21 07:18:05;;;;;;;21.50;11.47;;;;;;;;;;4976604;28;20218;-88
2021/03/21 07:20:58;;;;;;;20.03;12.77;;;;;;;;;;4959161;28;20530;-89
2021/03/21 07:23:35;;;;;;;20.93;13.07;;;;;;;;;;4977118;28;20162;-89
2021/03/21 07:26:19;;;;;;;18.47;11.80;;;;;;;;;;4976470;28;20183;-89
2021/03/21 07:29:09;;;;;;;19.53;11.40;;;;;;;;;;4970451;28;20174;-89
2021/03/21 07:31:39;;;;;;;18.53;11.93;;;;;;;;;;4949438;28;20621;-89
2021/03/21 07:34:23;;;;;;;21.33;12.13;;;;;;;;;;4957227;28;20230;-89
2021/03/21 07:37:07;;;;;;;22.67;12.60;;;;;;;;;;4956914;28;20266;-89
2021/03/21 07:39:42;;;;;;;21.87;12.80;;;;;;;;;;4957168;29;20174;-90
2021/03/21 07:42:26;;;;;;;20.27;11.30;;;;;;;;;;4956586;29;20222;-90
2021/03/21 07:45:06;;;;;;;20.83;12.37;;;;;;;;;;4955740;28;20245;-91
2021/03/21 07:47:44;;;;;;;26.60;14.73;;;;;;;;;;4938860;29;20281;-92
2021/03/21 07:50:18;;;;;;;20.93;12.87;;;;;;;;;;4940035;29;20178;-91
2021/03/21 07:52:57;;;;;;;25.43;14.07;;;;;;;;;;4939218;29;20640;-92
2021/03/21 07:55:22;;;;;;;23.93;12.23;;;;;;;;;;4965169;28;20584;-92
2021/03/21 07:57:52;;;;;;;21.27;11.10;;;;;;;;;;4975916;28;20185;-92
2021/03/21 08:00:17;;;;;;;18.97;12.13;;;;;;;;;;4975295;28;20212;-92
2021/03/21 08:02:43;;;;;;;20.77;13.20;;;;;;;;;;4976014;28;20609;-91
2021/03/21 08:05:13;;;;;;;20.57;13.13;;;;;;;;;;4957347;28;20187;-91
2021/03/21 08:07:41;;;;;;;21.03;13.20;;;;;;;;;;4975838;28;20175;-91
2021/03/21 08:10:26;;;;;;;23.43;13.90;;;;;;;;;;4976236;28;20182;-92
2021/03/21 08:13:00;;;;;;;25.17;13.47;;;;;;;;;;4957668;28;20193;-91
2021/03/21 08:15:28;;;;;;;24.53;13.60;;;;;;;;;;4976067;28;20356;-92
2021/03/21 08:18:02;;;;;;;17.83;12.00;;;;;;;;;;4958158;28;20183;-92
2021/03/21 08:20:31;;;;;;;17.47;11.83;;;;;;;;;;4957909;28;20182;-92
2021/03/21 08:23:08;;;;;;;18.70;11.57;;;;;;;;;;4958321;28;20269;-92
2021/03/21 08:25:36;;;;;;;22.80;12.80;;;;;;;;;;4973697;28;20189;-92
2021/03/21 08:28:01;;;;;;;21.10;11.80;;;;;;;;;;4956092;28;20174;-93
2021/03/21 08:30:41;;;;;;;17.93;12.27;;;;;;;;;;4956393;28;20189;-89
2021/03/21 08:33:09;;;;;;;20.97;12.13;;;;;;;;;;4956400;28;20350;-90
2021/03/21 08:35:34;;;;;;;25.47;15.07;;;;;;;;;;4956333;28;20253;-90
2021/03/21 08:38:20;;;;;;;20.07;12.50;;;;;;;;;;4973335;28;20645;-90
2021/03/21 08:40:46;;;;;;;19.43;11.50;;;;;;;;;;4956177;28;20264;-89
2021/03/21 08:43:21;;;;;;;19.63;12.07;;;;;;;;;;4956054;28;20253;-90
2021/03/21 08:45:56;;;;;;;17.90;11.43;;;;;;;;;;4956391;28;20182;-92
2021/03/21 08:48:32;;;;;;;19.10;11.97;;;;;;;;;;4974660;28;20236;-90
2021/03/21 08:51:17;;;;;;;19.20;12.00;;;;;;;;;;4974838;28;20225;-91
2021/03/21 08:53:55;;;;;;;20.90;13.03;;;;;;;;;;4943370;28;20237;-89
2021/03/21 08:56:22;;;;;;;23.20;13.43;;;;;;;;;;4956154;28;20171;-91
2021/03/21 08:58:51;;;;;;;22.70;14.27;;;;;;;;;;4955735;28;20171;-90
2021/03/21 09:01:24;;;;;;;31.53;17.93;;;;;;;;;;4955430;29;20254;-90
2021/03/21 09:03:51;;;;;;;35.57;21.87;;;;;;;;;;4938961;29;20179;-91
2021/03/21 09:06:28;;;;;;;27.03;17.57;;;;;;;;;;4938866;29;20191;-90
2021/03/21 09:08:54;;;;;;;23.00;14.90;;;;;;;;;;4954340;28;20179;-89
2021/03/21 09:11:32;;;;;;;17.50;11.80;;;;;;;;;;4953690;28;20182;-89
2021/03/21 09:14:03;;;;;;;21.03;12.63;;;;;;;;;;4953868;29;20214;-90
2021/03/21 09:16:29;;;;;;;17.57;12.53;;;;;;;;;;4953230;28;20222;-89
2021/03/21 09:19:09;;;;;;;21.40;13.27;;;;;;;;;;4955252;28;20182;-92
2021/03/21 09:21:43;;;;;;;20.67;14.37;;;;;;;;;;4973380;28;20644;-91
2021/03/21 09:24:16;;;;;;;20.30;13.13;;;;;;;;;;4974612;28;20155;-91
2021/03/21 09:26:45;;;;;;;20.60;14.40;;;;;;;;;;4974614;28;20293;-92
2021/03/21 09:29:11;;;;;;;23.83;14.93;;;;;;;;;;4969750;28;20179;-92
2021/03/21 09:31:36;;;;;;;22.47;14.27;;;;;;;;;;4956299;28;20205;-92
2021/03/21 09:34:15;;;;;;;22.07;13.60;;;;;;;;;;4973184;28;20665;-91
2021/03/21 09:36:45;;;;;;;19.87;12.10;;;;;;;;;;4951290;28;20193;-91
2021/03/21 09:39:10;;;;;;;22.63;13.83;;;;;;;;;;4973865;28;20189;-91
2021/03/21 09:41:35;;;;;;;21.47;13.20;;;;;;;;;;4973252;28;20171;-91
2021/03/21 09:44:05;;;;;;;20.10;12.03;;;;;;;;;;4973336;28;20189;-91
2021/03/21 09:46:38;;;;;;;19.97;13.40;;;;;;;;;;4955229;28;20237;-90
2021/03/21 09:49:13;;;;;;;24.57;15.27;;;;;;;;;;4972975;28;20242;-89
2021/03/21 09:51:38;;;;;;;26.27;14.70;;;;;;;;;;4973170;28;20229;-88
2021/03/21 09:54:12;;;;;;;24.63;13.77;;;;;;;;;;4974147;28;20715;-87
2021/03/21 09:56:43;;;;;;;18.83;12.40;;;;;;;;;;4974726;28;20178;-87
2021/03/21 09:59:14;;;;;;;23.00;14.47;;;;;;;;;;4974441;28;20298;-88
2021/03/21 10:01:46;;;;;;;18.50;12.30;;;;;;;;;;4974693;28;20182;-88
2021/03/21 10:04:14;;;;;;;17.17;11.70;;;;;;;;;;4974683;28;20183;-87
2021/03/21 10:06:40;;;;;;;20.97;13.00;;;;;;;;;;4957892;28;20178;-87
2021/03/21 10:09:16;;;;;;;18.13;12.40;;;;;;;;;;4978674;28;20513;-89
2021/03/21 10:11:46;;;;;;;20.23;13.00;;;;;;;;;;4974993;28;20178;-87
2021/03/21 10:14:27;;;;;;;18.43;12.47;;;;;;;;;;4974324;28;20657;-88
2021/03/21 10:16:53;;;;;;;19.77;12.70;;;;;;;;;;4977526;28;20181;-88
2021/03/21 10:19:37;;;;;;;18.27;12.17;;;;;;;;;;4977613;28;20257;-87
2021/03/21 10:22:22;;;;;;;21.33;13.17;;;;;;;;;;4977418;28;20217;-88
2021/03/21 10:24:48;;;;;;;23.60;14.03;;;;;;;;;;4977492;28;20230;-87
2021/03/21 10:27:14;;;;;;;20.33;13.70;;;;;;;;;;4959861;28;20186;-89
2021/03/21 10:29:39;;;;;;;21.40;13.93;;;;;;;;;;4958239;29;20172;-87
2021/03/21 10:32:20;;;;;;;20.40;13.10;;;;;;;;;;4957740;28;20175;-89
2021/03/21 10:34:45;;;;;;;21.50;13.50;;;;;;;;;;4958092;29;20203;-87
2021/03/21 10:37:10;;;;;;;20.13;12.97;;;;;;;;;;4957769;29;20182;-88
2021/03/21 10:39:42;;;;;;;25.27;15.57;;;;;;;;;;4975258;28;20182;-87
2021/03/21 10:42:07;;;;;;;24.23;15.63;;;;;;;;;;4976645;28;20662;-88
2021/03/21 10:44:33;;;;;;;24.23;14.60;;;;;;;;;;4977128;28;20175;-88
2021/03/21 10:46:59;;;;;;;18.47;13.80;;;;;;;;;;4959264;28;20234;-88
2021/03/21 10:49:43;;;;;;;18.30;12.77;;;;;;;;;;4976432;28;20202;-89
2021/03/21 10:52:23;;;;;;;20.03;13.93;;;;;;;;;;4975097;28;20175;-90
2021/03/21 10:55:09;;;;;;;28.60;15.93;;;;;;;;;;4957786;28;20218;-88
2021/03/21 10:57:41;;;;;;;23.23;14.90;;;;;;;;;;4975841;28;20186;-87
2021/03/21 11:00:10;;;;;;;23.57;14.47;;;;;;;;;;4958473;28;20182;-86
2021/03/21 11:02:36;;;;;;;24.60;16.20;;;;;;;;;;4976437;28;20175;-87
2021/03/21 11:05:06;;;;;;;23.17;14.53;;;;;;;;;;4976573;28;20636;-88
2021/03/21 11:07:32;;;;;;;27.40;18.10;;;;;;;;;;4956104;28;20187;-87
2021/03/21 11:10:02;;;;;;;24.93;16.30;;;;;;;;;;4939976;29;20183;-86
2021/03/21 11:12:29;;;;;;;22.57;15.40;;;;;;;;;;4956846;29;20278;-85
2021/03/21 11:15:13;;;;;;;22.37;15.77;;;;;;;;;;4956608;28;20198;-85
2021/03/21 11:17:39;;;;;;;24.57;16.87;;;;;;;;;;4956780;28;20610;-87
2021/03/21 11:20:20;;;;;;;27.37;17.63;;;;;;;;;;4970244;28;20206;-87
2021/03/21 11:22:45;;;;;;;27.30;18.00;;;;;;;;;;4972972;28;20265;-87
2021/03/21 11:25:13;;;;;;;25.47;18.60;;;;;;;;;;4975081;28;20178;-87
2021/03/21 11:27:38;;;;;;;26.10;17.60;;;;;;;;;;4973919;28;20630;-87
2021/03/21 11:30:10;;;;;;;25.50;17.17;;;;;;;;;;4956803;28;20205;-86
2021/03/21 11:32:35;;;;;;;26.40;17.87;;;;;;;;;;4974385;28;20174;-87
2021/03/21 11:35:01;;;;;;;20.83;15.27;;;;;;;;;;4974088;28;20209;-87
2021/03/21 11:37:29;;;;;;;23.53;17.00;;;;;;;;;;4975045;28;20219;-88
2021/03/21 11:39:58;;;;;;;26.77;17.80;;;;;;;;;;4958111;28;20185;-87
2021/03/21 11:42:37;;;;;;;23.07;16.23;;;;;;;;;;4975427;28;20269;-87
2021/03/21 11:45:17;;;;;;;23.13;15.70;;;;;;;;;;4957791;28;20241;-86
2021/03/21 11:47:44;;;;;;;24.43;16.17;;;;;;;;;;4969106;28;20255;-88
2021/03/21 11:50:16;;;;;;;23.10;16.60;;;;;;;;;;4957642;28;20226;-89
2021/03/21 11:52:42;;;;;;;24.00;16.17;;;;;;;;;;4974680;28;20178;-86
2021/03/21 11:55:08;;;;;;;22.47;15.33;;;;;;;;;;4974973;28;20836;-86
2021/03/21 11:57:33;;;;;;;24.80;16.37;;;;;;;;;;4975487;28;20170;-86
2021/03/21 12:00:03;;;;;;;21.97;16.00;;;;;;;;;;4975216;28;20175;-86
2021/03/21 12:02:40;;;;;;;25.23;16.37;;;;;;;;;;4961383;28;20187;-85
2021/03/21 12:05:10;;;;;;;26.73;16.30;;;;;;;;;;4963841;28;20178;-85
2021/03/21 12:07:36;;;;;;;33.00;19.27;;;;;;;;;;4968727;28;20176;-86
2021/03/21 12:10:03;;;;;;;27.50;18.87;;;;;;;;;;4961248;28;20232;-86
2021/03/21 12:12:36;;;;;;;28.33;17.73;;;;;;;;;;4975061;28;20637;-86
2021/03/21 12:15:06;;;;;;;31.03;17.90;;;;;;;;;;4974354;28;20193;-85
2021/03/21 12:17:33;;;;;;;30.10;17.67;;;;;;;;;;4973375;28;20301;-86
2021/03/21 12:20:17;;;;;;;24.47;17.00;;;;;;;;;;4971522;28;20261;-86
2021/03/21 12:22:48;;;;;;;25.53;17.47;;;;;;;;;;4954909;29;20171;-85
2021/03/21 12:25:19;;;;;;;28.17;18.37;;;;;;;;;;4937466;29;20528;-85
2021/03/21 12:27:46;;;;;;;29.13;16.77;;;;;;;;;;4966036;28;20182;-86
2021/03/21 12:30:20;;;;;;;25.37;17.60;;;;;;;;;;4973345;28;20221;-85
2021/03/21 12:32:46;;;;;;;24.63;17.03;;;;;;;;;;4973840;28;20170;-85
2021/03/21 12:35:26;;;;;;;21.47;15.17;;;;;;;;;;4973638;28;20557;-85
2021/03/21 12:37:58;;;;;;;24.83;16.73;;;;;;;;;;4974567;28;20174;-85
2021/03/21 12:40:32;;;;;;;20.00;14.27;;;;;;;;;;4974631;28;20174;-85
2021/03/21 12:42:57;;;;;;;22.30;15.33;;;;;;;;;;4975154;28;20200;-87
2021/03/21 12:45:27;;;;;;;23.97;14.67;;;;;;;;;;4973168;28;20183;-86
2021/03/21 12:47:55;;;;;;;19.10;14.33;;;;;;;;;;4955920;28;20194;-86
2021/03/21 12:51:00;;;;;;;20.90;15.50;;;;;;;;;;4954187;28;20285;-87
2021/03/21 12:53:29;;;;;;;20.70;15.40;;;;;;;;;;4896085;29;20192;-88
2021/03/21 12:55:57;;;;;;;20.47;15.13;;;;;;;;;;4893171;29;20549;-87
2021/03/21 12:58:22;;;;;;;22.70;16.03;;;;;;;;;;4933001;28;20194;-87
2021/03/21 13:00:49;;;;;;;26.00;16.00;;;;;;;;;;4972742;28;20182;-87
2021/03/21 13:03:21;;;;;;;24.80;16.37;;;;;;;;;;4972096;28;20183;-87
2021/03/21 13:05:47;;;;;;;21.73;16.10;;;;;;;;;;4973097;28;20707;-87
2021/03/21 13:08:14;;;;;;;21.07;15.20;;;;;;;;;;4973086;28;20261;-87
2021/03/21 13:10:40;;;;;;;23.60;17.13;;;;;;;;;;4972764;28;20178;-86
2021/03/21 13:13:06;;;;;;;24.13;16.33;;;;;;;;;;4937913;29;20186;-87
2021/03/21 13:15:31;;;;;;;24.13;16.73;;;;;;;;;;4953826;28;20215;-87
2021/03/21 13:17:57;;;;;;;23.93;16.67;;;;;;;;;;4953457;28;20180;-86
2021/03/21 13:20:22;;;;;;;23.77;17.70;;;;;;;;;;4953621;28;20186;-86
2021/03/21 13:22:48;;;;;;;24.47;17.43;;;;;;;;;;4954482;28;20531;-87
2021/03/21 13:25:22;;;;;;;24.10;17.77;;;;;;;;;;4972942;28;20175;-87
2021/03/21 13:27:47;;;;;;;22.40;16.70;;;;;;;;;;4973249;28;20166;-87
2021/03/21 13:30:13;;;;;;;25.57;18.60;;;;;;;;;;4974296;28;20241;-88
2021/03/21 13:32:38;;;;;;;26.50;18.03;;;;;;;;;;4974561;28;20174;-87
2021/03/21 13:35:04;;;;;;;27.60;18.03;;;;;;;;;;4957325;28;20213;-86
2021/03/21 13:37:31;;;;;;;25.73;17.57;;;;;;;;;;4974527;28;20218;-88
2021/03/21 13:39:57;;;;;;;25.27;17.17;;;;;;;;;;4974646;28;20174;-88
2021/03/21 13:42:22;;;;;;;27.10;18.43;;;;;;;;;;4958634;28;20536;-87
2021/03/21 13:44:48;;;;;;;23.70;17.37;;;;;;;;;;4960884;28;20174;-87
2021/03/21 13:47:13;;;;;;;26.53;17.13;;;;;;;;;;4977977;28;20181;-88
2021/03/21 13:49:39;;;;;;;22.77;16.30;;;;;;;;;;4960459;28;20320;-88
2021/03/21 13:52:09;;;;;;;23.23;17.10;;;;;;;;;;4977717;28;20197;-87
2021/03/21 13:54:35;;;;;;;23.50;16.20;;;;;;;;;;4959050;28;20305;-86
2021/03/21 13:57:01;;;;;;;27.17;18.23;;;;;;;;;;4976386;28;20314;-87
2021/03/21 13:59:26;;;;;;;25.30;17.50;;;;;;;;;;4958871;28;20186;-87
2021/03/21 14:01:51;;;;;;;28.73;19.23;;;;;;;;;;4976428;28;20718;-87
2021/03/21 14:04:17;;;;;;;26.10;17.20;;;;;;;;;;4976306;28;20634;-88
2021/03/21 14:06:42;;;;;;;24.27;17.00;;;;;;;;;;4976302;28;20257;-86
2021/03/21 14:09:07;;;;;;;24.83;17.10;;;;;;;;;;4976116;28;20177;-87
2021/03/21 14:11:33;;;;;;;25.60;17.37;;;;;;;;;;4958646;28;20197;-87
2021/03/21 14:13:58;;;;;;;29.33;20.60;;;;;;;;;;4958126;28;20210;-87
2021/03/21 14:16:23;;;;;;;25.93;18.27;;;;;;;;;;4976119;28;20178;-88
2021/03/21 14:18:49;;;;;;;26.77;18.17;;;;;;;;;;4958300;28;20680;-87
2021/03/21 14:21:15;;;;;;;27.53;18.80;;;;;;;;;;4976181;28;20182;-86
2021/03/21 14:23:40;;;;;;;25.50;18.43;;;;;;;;;;4965327;28;20232;-88
2021/03/21 14:26:05;;;;;;;22.90;17.00;;;;;;;;;;4995637;28;20571;-88
2021/03/21 14:28:35;;;;;;;24.03;17.47;;;;;;;;;;4995565;28;20174;-86
2021/03/21 14:31:01;;;;;;;27.03;18.17;;;;;;;;;;4995282;28;20500;-86
2021/03/21 14:33:27;;;;;;;26.80;18.30;;;;;;;;;;4994859;28;20221;-86
2021/03/21 14:35:52;;;;;;;25.50;18.53;;;;;;;;;;4995261;28;20186;-86
2021/03/21 14:38:21;;;;;;;28.60;19.43;;;;;;;;;;4994841;28;20225;-87
2021/03/21 14:40:47;;;;;;;30.50;20.17;;;;;;;;;;4995184;28;20178;-87
2021/03/21 14:43:13;;;;;;;28.47;20.20;;;;;;;;;;4995004;28;20174;-87